Naugatuck, CT

3:58 AM EST on January 27, 2015 (GMT -0500)
Wooster Street | Change Station
CLOSE
Current Station
Personal Weather Station
Location: Naugatuck, CT
Elevation: 623 ft
Nearby Weather Stations
Active Advisory: Blizzard Warning Active Notice: Public Information Statement

Elev 623 ft 41.50 °N, 73.03 °W | Updated 4 seconds ago

Snow
Snow
14.8 °F
Feels Like 3 °F
N
9.0
Wind Variable Wind from North
Gusts 17.0 mph

Today
High -- | Low -- °F
--% Chance of Precip.
Yesterday
High -- | Low -- °F
Precip. -- in
7:08 AM 5:01 PM
First Quarter, 52% visible
Pressure 29.60 in
Visibility 0.8 miles
Clouds Overcast 600 ft
Windchill 3 °F
Dew Point 12 °F
Humidity 89%
Rainfall 0.00 in
Snow Depth Not available.
UV 0 out of 12
Pollen .10 out of 12
Air Quality Not available.
Flu Activity Not available.
METAR KOXC 270855Z 02024G31KT 3/4SM OVC006 M09/M14 A2960 RMK AO1 57003

More Conditions Fewer Conditions

Pressure 29.60 in
Visibility 0.8 miles
Clouds Overcast 600 ft
Windchill 3 °F
Dew Point 12 °F
Humidity 89%
Rainfall 0.00 in
Snow Depth Not available.
UV 0 out of 12
Pollen .10 out of 12
Air Quality Not available.
Flu Activity Not available.
METAR KOXC 270855Z 02024G31KT 3/4SM OVC006 M09/M14 A2960 RMK AO1 57003

More Conditions Fewer Conditions

10-Day Weather Forecast

Almanac

Astronomy

Jan. 27, 2015 Rise Set
Actual Time
Civil Twilight
Nautical Twilight
Astronomical Twilight
Moon
Length of Visible Light
Length of Day
Tomorrow will be .
, % of the Moon is Illuminated

Today's Extremes

State Highs State Lows

Community

WunderPhotos

Upload Photos

1,790,555 photos uploaded!

WunderBlogs® & News

Nearby

Air Quality

  Air Quality AQ Index Pollutant
Not available.

Snow Depth

Station Depth Elevation

Earthquake Activity

City Distance Mag. Time & Date
Minimum magnitude displayed is 2.5.

Coastal Water Temperatures

Place Temperature

Nearby Weather Stations